Somerton, United Kingdom
Current Conditions -  °F | °C
As of 11:50 AM on Saturday 20 Dec 2014 (Local Time) from EGDY Reporting Station
Broken Clouds Broken Clouds  
Wind Chill: 42°   Ceiling: 4300
Heat Index: 48°   Visibility: 6mi
Dew Point: 39°   Wind: 18mph
Humidity: 71%   Direction: 290°WNW
Pressure: 30.39"   Gusts: NA
Location:  51.06°N, 2.71°W
Report Text: EGDY 201150Z AUTO 29016KT 9999 FEW025/// BKN043/// 09/04 Q1029 RERA
Loading
Personal Weather Stations






























Interactive Weather Map New forecast layout! Learn more

10-Day Weather Forecast

Advertisements
Track Severe Weather on mobile